Time;durP1;ratioP1;P1;durP2;ratioP2;P2;SDS_P1;SDS_P2;PMS_P1;PMS_P2;Temp;Humidity;BMP_temperature;BMP_pressure;BME280_temperature;BME280_humidity;BME280_pressure;Samples;Min_cycle;Max_cycle;Signal;HPM_P1;HPM_P2
2022/05/10 00:01:36;;;;;;;1.90;1.10;;;11.40;73.00;11.30;101346.00;;;;4955734;28;108779;-66
2022/05/10 00:04:04;;;;;;;2.47;2.00;;;11.30;73.80;11.20;101341.00;;;;4938015;28;89455;-66
2022/05/10 00:06:38;;;;;;;3.57;1.90;;;11.30;74.50;11.20;101347.00;;;;4956722;28;87973;-66
2022/05/10 00:09:05;;;;;;;1.90;1.67;;;11.20;75.20;11.10;101343.00;;;;4938938;28;87771;-66
2022/05/10 00:11:31;;;;;;;2.23;1.57;;;11.20;76.20;11.10;101340.00;;;;4937466;28;88046;-66
2022/05/10 00:14:49;;;;;;;2.00;1.73;;;11.10;76.90;10.90;101338.00;;;;4936477;28;116328;-66
2022/05/10 00:17:32;;;;;;;3.27;1.83;;;11.10;77.80;11.00;101327.00;;;;4936219;28;108011;-66
2022/05/10 00:19:58;;;;;;;1.90;1.53;;;11.00;78.40;11.00;101335.00;;;;4938993;28;87832;-66
2022/05/10 00:22:24;;;;;;;1.60;1.33;;;11.00;79.20;10.90;101333.00;;;;4942015;28;107432;-66
2022/05/10 00:24:50;;;;;;;2.47;1.40;;;11.00;79.90;10.90;101327.00;;;;4956322;28;88913;-66
2022/05/10 00:27:17;;;;;;;1.40;1.30;;;10.90;80.50;10.90;101329.00;;;;4956042;28;88614;-66
2022/05/10 00:29:43;;;;;;;2.47;1.67;;;10.90;81.30;10.80;101323.00;;;;4956581;28;87751;-66
2022/05/10 00:32:09;;;;;;;2.93;1.87;;;10.90;82.10;10.80;101316.00;;;;4950758;28;94744;-66
2022/05/10 00:34:35;;;;;;;3.67;2.07;;;10.80;82.90;10.70;101317.00;;;;4955421;28;118037;-66
2022/05/10 00:37:01;;;;;;;2.10;1.83;;;10.80;83.70;10.70;101316.00;;;;4967134;28;108405;-66
2022/05/10 00:39:27;;;;;;;5.43;2.40;;;10.70;84.30;10.60;101321.00;;;;4967832;28;110632;-66
2022/05/10 00:42:06;;;;;;;2.13;1.90;;;10.70;85.00;10.60;101314.00;;;;4940393;28;90829;-66
2022/05/10 00:44:49;;;;;;;2.80;1.97;;;10.70;85.70;10.50;101309.00;;;;4934492;28;88608;-66
2022/05/10 00:47:34;;;;;;;2.77;1.03;;;10.60;86.50;10.50;101302.00;;;;4950491;28;88819;-66
2022/05/10 00:50:06;;;;;;;2.07;1.83;;;10.50;87.40;10.50;101306.00;;;;4937378;28;87627;-66
2022/05/10 00:53:08;;;;;;;3.80;1.50;;;10.50;88.40;10.40;101306.00;;;;4958653;28;88316;-66
2022/05/10 00:55:45;;;;;;;4.33;1.70;;;10.50;89.40;10.40;101305.00;;;;4928448;28;94052;-66
2022/05/10 00:58:31;;;;;;;4.13;1.77;;;10.40;89.80;10.30;101300.00;;;;4939611;28;111246;-66
2022/05/10 01:00:59;;;;;;;2.07;1.53;;;10.50;90.10;10.40;101305.00;;;;4951992;28;87860;-66
2022/05/10 01:03:34;;;;;;;2.63;1.87;;;10.40;90.10;10.30;101296.00;;;;4940988;28;101645;-66
2022/05/10 01:06:24;;;;;;;1.40;1.07;;;10.40;90.20;10.30;101292.00;;;;4950897;28;108460;-66
2022/05/10 01:09:20;;;;;;;5.13;2.03;;;10.40;90.30;10.20;101292.00;;;;4934733;28;88677;-66
2022/05/10 01:12:48;;;;;;;2.20;1.90;;;10.40;90.50;10.20;101296.00;;;;4964122;28;87969;-66
2022/05/10 01:15:22;;;;;;;4.17;1.70;;;10.30;90.70;10.20;101286.00;;;;4882348;28;89011;-66
2022/05/10 01:17:56;;;;;;;1.80;1.67;;;10.30;90.90;10.10;101281.00;;;;4933860;28;89217;-65
2022/05/10 01:20:39;;;;;;;2.67;2.47;;;10.20;91.10;10.10;101279.00;;;;4950652;28;87836;-65
2022/05/10 01:27:19;;;;;;;2.17;1.73;;;10.10;91.90;9.90;101281.00;;;;4935515;28;87565;-66
2022/05/10 01:29:53;;;;;;;2.33;1.90;;;10.00;92.30;9.80;101281.00;;;;4978847;28;87676;-66
2022/05/10 01:35:22;;;;;;;3.13;2.00;;;9.80;93.50;9.70;101261.00;;;;4940398;28;87383;-66
2022/05/10 01:38:06;;;;;;;3.30;2.13;;;9.80;93.90;9.60;101269.00;;;;4967244;28;87818;-66
2022/05/10 01:40:44;;;;;;;2.67;2.00;;;9.70;94.20;9.50;101264.00;;;;4950476;28;113247;-65
2022/05/10 01:43:24;;;;;;;4.47;2.37;;;9.60;94.70;9.40;101268.00;;;;4949063;28;96435;-66
2022/05/10 01:46:01;;;;;;;2.33;2.00;;;9.50;95.00;9.40;101252.00;;;;4952841;28;87900;-65
2022/05/10 01:48:27;;;;;;;2.87;2.27;;;9.50;95.20;9.40;101254.00;;;;4952689;28;98575;-66
2022/05/10 01:51:04;;;;;;;2.00;1.80;;;9.40;95.30;9.30;101257.00;;;;4933275;28;118207;-65
2022/05/10 01:53:34;;;;;;;5.33;1.97;;;9.40;95.60;9.30;101258.00;;;;4935154;28;110033;-65
2022/05/10 01:56:04;;;;;;;6.43;2.83;;;9.40;95.80;9.30;101265.00;;;;4935161;28;103991;-66
2022/05/10 01:58:35;;;;;;;1.90;1.73;;;9.40;96.10;9.20;101256.00;;;;4935873;28;87783;-65
2022/05/10 02:01:11;;;;;;;2.67;1.80;;;9.30;96.40;9.20;101261.00;;;;4937827;28;87722;-66
2022/05/10 02:03:53;;;;;;;4.57;2.23;;;9.30;96.80;9.10;101258.00;;;;4954865;28;88045;-66
2022/05/10 02:06:46;;;;;;;3.30;2.17;;;9.00;97.20;9.00;101253.00;;;;4936042;28;93084;-65
2022/05/10 02:09:17;;;;;;;4.33;2.40;;;9.10;98.00;9.00;101250.00;;;;4939770;28;98970;-66
2022/05/10 02:12:02;;;;;;;2.30;1.80;;;9.10;98.50;8.90;101248.00;;;;4949332;28;88662;-65
2022/05/10 02:14:43;;;;;;;5.50;2.43;;;9.00;98.60;8.90;101247.00;;;;4943157;28;87806;-66
2022/05/10 02:17:30;;;;;;;3.90;1.80;;;9.00;99.10;8.80;101250.00;;;;4953109;28;93929;-66
2022/05/10 02:20:11;;;;;;;3.10;2.33;;;9.00;99.10;8.80;101253.00;;;;4941969;28;102529;-65
2022/05/10 02:23:19;;;;;;;2.80;2.37;;;8.90;99.30;8.70;101243.00;;;;4948461;28;112299;-66
2022/05/10 02:25:52;;;;;;;6.00;2.97;;;8.90;99.80;8.70;101251.00;;;;4931020;28;87842;-65
2022/05/10 02:28:45;;;;;;;1.90;1.57;;;8.80;99.90;8.60;101252.00;;;;4953183;28;102873;-66
2022/05/10 02:31:20;;;;;;;4.17;2.90;;;8.70;99.90;8.60;101240.00;;;;4937885;28;87648;-66
2022/05/10 02:33:49;;;;;;;1.90;1.80;;;8.70;99.90;8.60;101244.00;;;;4938669;28;88812;-66
2022/05/10 02:36:15;;;;;;;6.13;2.97;;;8.60;99.90;8.50;101238.00;;;;4938725;28;88777;-65
2022/05/10 02:38:42;;;;;;;2.40;2.20;;;8.60;99.90;8.50;101230.00;;;;4941417;28;88108;-65
2022/05/10 02:41:14;;;;;;;2.23;2.03;;;8.60;99.90;8.50;101237.00;;;;4958703;28;87801;-66
2022/05/10 02:44:08;;;;;;;2.47;1.87;;;8.50;99.90;8.40;101229.00;;;;4956152;28;88070;-66
2022/05/10 02:46:34;;;;;;;4.50;2.43;;;8.50;99.90;8.40;101231.00;;;;4957866;28;114613;-66
2022/05/10 02:49:00;;;;;;;2.30;2.07;;;8.50;99.90;8.40;101229.00;;;;4956385;28;87862;-65
2022/05/10 02:51:26;;;;;;;3.33;2.23;;;8.50;99.90;8.40;101232.00;;;;4957897;28;87606;-66
2022/05/10 02:53:52;;;;;;;2.10;1.90;;;8.50;99.90;8.40;101218.00;;;;4956941;28;116504;-66
2022/05/10 02:56:22;;;;;;;1.97;1.77;;;8.50;99.90;8.40;101222.00;;;;4957711;28;117125;-66
2022/05/10 02:59:10;;;;;;;3.10;2.20;;;8.40;99.90;8.30;101222.00;;;;4956665;28;101219;-66
2022/05/10 03:02:07;;;;;;;3.27;2.40;;;8.50;99.90;8.30;101217.00;;;;4950719;28;102041;-66
2022/05/10 03:04:41;;;;;;;2.60;2.40;;;8.50;99.90;8.30;101212.00;;;;4938637;28;88119;-66
2022/05/10 03:07:08;;;;;;;2.87;2.20;;;8.40;99.90;8.30;101207.00;;;;4937951;28;109330;-66
2022/05/10 03:09:34;;;;;;;3.00;2.37;;;8.40;99.90;8.30;101214.00;;;;4954659;28;87756;-66
2022/05/10 03:12:04;;;;;;;2.57;1.77;;;8.40;99.90;8.30;101211.00;;;;4949329;28;95272;-66
2022/05/10 03:14:30;;;;;;;3.63;2.70;;;8.40;99.90;8.30;101213.00;;;;4939229;28;88661;-67
2022/05/10 03:16:56;;;;;;;2.73;2.20;;;8.30;99.90;8.20;101210.00;;;;4938514;28;89042;-66
2022/05/10 03:19:22;;;;;;;2.10;1.90;;;8.30;99.90;8.10;101207.00;;;;4937564;28;110237;-66
2022/05/10 03:21:48;;;;;;;5.80;2.13;;;8.20;99.90;8.10;101212.00;;;;4938017;28;91301;-66
2022/05/10 03:24:14;;;;;;;4.43;2.80;;;8.20;99.90;8.10;101203.00;;;;4951709;28;99671;-66
2022/05/10 03:26:47;;;;;;;3.87;2.80;;;8.20;99.90;8.10;101211.00;;;;4956620;28;104338;-66
2022/05/10 03:29:13;;;;;;;6.03;2.10;;;8.20;99.90;8.10;101214.00;;;;4940089;28;102405;-66
2022/05/10 03:31:38;;;;;;;3.17;2.10;;;8.20;99.90;8.10;101209.00;;;;4938648;28;87755;-66
2022/05/10 03:36:48;;;;;;;3.33;2.57;;;8.20;99.90;8.10;101206.00;;;;4956002;28;87918;-67
2022/05/10 03:39:14;;;;;;;7.67;2.27;;;8.20;99.90;8.10;101211.00;;;;4953808;28;110071;-66
2022/05/10 03:41:46;;;;;;;2.73;2.53;;;8.20;99.90;8.10;101205.00;;;;4956469;28;107356;-66
2022/05/10 03:44:11;;;;;;;6.97;2.63;;;8.20;99.90;8.10;101205.00;;;;4943328;28;87108;-66
2022/05/10 03:46:37;;;;;;;3.43;2.73;;;8.20;99.90;8.20;101198.00;;;;4937986;28;97278;-66
2022/05/10 03:49:04;;;;;;;2.37;2.17;;;8.20;99.90;8.20;101201.00;;;;4937597;28;87703;-66
2022/05/10 03:51:29;;;;;;;3.57;2.87;;;8.30;99.90;8.20;101199.00;;;;4937214;28;99947;-66
2022/05/10 03:53:58;;;;;;;7.40;2.97;;;8.30;99.90;8.20;101198.00;;;;4947679;28;100805;-66
2022/05/10 03:56:34;;;;;;;5.20;1.97;;;8.30;99.90;8.20;101200.00;;;;4957847;28;87883;-66
2022/05/10 03:59:00;;;;;;;2.87;1.93;;;8.30;99.90;8.30;101206.00;;;;4953398;28;98613;-66
2022/05/10 04:01:26;;;;;;;5.70;2.53;;;8.30;99.90;8.30;101200.00;;;;4942532;28;107281;-66
2022/05/10 04:03:52;;;;;;;4.40;2.57;;;8.40;99.90;8.40;101197.00;;;;4955315;28;117755;-67
2022/05/10 04:06:18;;;;;;;5.83;3.20;;;8.40;99.90;8.40;101202.00;;;;4954091;28;117829;-66
2022/05/10 04:08:45;;;;;;;4.50;3.30;;;8.40;99.90;8.40;101204.00;;;;4956162;28;87119;-66
2022/05/10 04:11:13;;;;;;;4.03;2.67;;;8.40;99.90;8.40;101200.00;;;;4955300;28;87790;-66
2022/05/10 04:13:40;;;;;;;2.90;2.53;;;8.50;99.90;8.50;101194.00;;;;4937106;28;108942;-66
2022/05/10 04:16:37;;;;;;;5.03;2.60;;;8.50;99.90;8.50;101206.00;;;;4968311;28;96074;-66
2022/05/10 04:19:03;;;;;;;4.70;2.23;;;8.60;99.90;8.60;101202.00;;;;4949585;28;108681;-66
2022/05/10 04:21:28;;;;;;;4.03;2.63;;;8.60;99.90;8.70;101191.00;;;;4936578;28;108807;-66
2022/05/10 04:23:54;;;;;;;3.03;2.30;;;8.70;99.90;8.80;101196.00;;;;4936859;28;117352;-66
2022/05/10 04:26:20;;;;;;;4.20;3.00;;;8.80;99.90;8.90;101195.00;;;;4935953;28;117318;-66
2022/05/10 04:28:46;;;;;;;4.00;2.17;;;8.80;99.90;8.90;101194.00;;;;4937429;28;87763;-66
2022/05/10 04:31:13;;;;;;;2.83;2.23;;;8.90;99.90;9.00;101195.00;;;;4937416;28;87527;-66
2022/05/10 04:33:39;;;;;;;8.17;3.77;;;9.00;99.90;9.20;101189.00;;;;4943732;28;94690;-66
2022/05/10 04:36:06;;;;;;;3.87;2.67;;;9.20;99.90;9.30;101180.00;;;;4956128;28;116894;-66
2022/05/10 04:38:32;;;;;;;4.23;3.03;;;9.30;99.90;9.40;101192.00;;;;4955155;28;103297;-66
2022/05/10 04:43:43;;;;;;;3.77;2.77;;;9.50;99.90;9.70;101194.00;;;;4943530;28;87798;-66
2022/05/10 04:46:09;;;;;;;4.47;3.07;;;9.60;99.90;9.80;101187.00;;;;4955266;28;116581;-66
2022/05/10 04:48:34;;;;;;;3.20;2.50;;;9.80;99.90;10.00;101187.00;;;;4956399;28;87745;-66
2022/05/10 04:51:02;;;;;;;4.70;2.40;;;9.90;99.90;10.20;101186.00;;;;4956366;28;87860;-66
2022/05/10 04:53:28;;;;;;;6.57;3.00;;;10.10;99.90;10.40;101189.00;;;;4950898;28;88299;-66
2022/05/10 04:55:54;;;;;;;4.10;3.17;;;10.30;99.90;10.60;101186.00;;;;4936658;28;89063;-66
2022/05/10 04:58:19;;;;;;;4.57;2.87;;;10.50;99.90;10.80;101204.00;;;;4936877;28;86981;-66
2022/05/10 05:00:45;;;;;;;3.30;1.90;;;10.70;99.90;11.00;101194.00;;;;4953135;28;108765;-65
2022/05/10 05:03:11;;;;;;;2.50;2.07;;;10.90;99.90;11.20;101193.00;;;;4955125;28;117470;-66
2022/05/10 05:05:36;;;;;;;6.60;3.17;;;11.10;99.90;11.40;101196.00;;;;4954881;28;116941;-66
2022/05/10 05:08:02;;;;;;;2.50;2.17;;;11.30;99.90;11.70;101200.00;;;;4955898;28;90893;-65
2022/05/10 05:10:28;;;;;;;6.10;2.87;;;11.50;99.90;11.80;101199.00;;;;4955260;28;102215;-65
2022/05/10 05:12:54;;;;;;;3.60;3.13;;;11.70;99.90;12.00;101198.00;;;;4940047;28;88042;-65
2022/05/10 05:15:20;;;;;;;7.40;2.03;;;11.90;99.90;12.20;101198.00;;;;4935567;28;118406;-66
2022/05/10 05:17:45;;;;;;;3.73;2.63;;;12.10;99.90;12.40;101202.00;;;;4954133;28;109579;-65
2022/05/10 05:20:12;;;;;;;4.20;2.33;;;12.50;99.90;12.60;101205.00;;;;4955572;28;109503;-65
2022/05/10 05:22:38;;;;;;;3.43;2.50;;;12.50;99.90;12.80;101195.00;;;;4956008;28;87944;-65
2022/05/10 05:25:06;;;;;;;3.80;2.47;;;12.60;99.90;13.00;101196.00;;;;4938393;28;89784;-65
2022/05/10 05:27:32;;;;;;;4.33;2.03;;;12.80;99.90;13.10;101193.00;;;;4948006;28;87633;-66
2022/05/10 05:29:58;;;;;;;2.87;2.20;;;13.00;99.90;13.30;101199.00;;;;4955145;28;88950;-66
2022/05/10 05:32:31;;;;;;;5.50;1.93;;;13.10;99.90;13.50;101197.00;;;;4955236;28;102191;-65
2022/05/10 05:34:57;;;;;;;2.87;2.27;;;13.30;99.60;13.70;101201.00;;;;4950728;28;88731;-65
2022/05/10 05:37:37;;;;;;;2.57;2.10;;;13.50;99.20;13.90;101196.00;;;;4955874;28;87707;-65
2022/05/10 05:40:14;;;;;;;3.53;2.53;;;13.70;98.40;14.20;101201.00;;;;4955934;28;87673;-66
2022/05/10 05:42:40;;;;;;;2.73;2.37;;;14.00;97.80;14.30;101197.00;;;;4955404;28;89203;-65
2022/05/10 05:45:08;;;;;;;5.80;2.40;;;14.10;97.00;14.50;101190.00;;;;4937820;28;116082;-65
2022/05/10 05:47:34;;;;;;;2.53;2.20;;;14.30;96.50;14.70;101194.00;;;;4953091;28;86948;-65
2022/05/10 05:49:59;;;;;;;3.57;1.87;;;14.40;96.10;14.90;101197.00;;;;4946417;28;107836;-65
2022/05/10 05:52:26;;;;;;;2.43;1.67;;;14.70;95.60;15.10;101192.00;;;;4954538;28;117573;-65
2022/05/10 05:54:53;;;;;;;1.97;1.77;;;14.90;94.90;15.30;101192.00;;;;4940565;28;88724;-65
2022/05/10 05:57:20;;;;;;;4.35;2.58;;;15.10;94.40;15.60;101187.00;;;;4950121;28;101576;-65
2022/05/10 06:00:03;;;;;;;7.22;2.80;;;15.40;93.80;15.80;101185.00;;;;4955652;28;89442;-65
2022/05/10 06:02:29;;;;;;;3.63;2.70;;;15.60;93.00;15.90;101184.00;;;;4954144;28;87946;-65
2022/05/10 06:04:57;;;;;;;3.92;2.05;;;15.70;92.00;16.10;101185.00;;;;4952437;28;116897;-65
2022/05/10 06:07:23;;;;;;;2.10;1.90;;;15.90;91.80;16.30;101186.00;;;;4954335;28;109146;-65
2022/05/10 06:09:49;;;;;;;3.58;2.13;;;16.10;91.50;16.60;101190.00;;;;4952040;28;108630;-64
2022/05/10 06:12:19;;;;;;;1.52;1.42;;;16.30;91.10;16.80;101181.00;;;;4944442;28;88753;-65
2022/05/10 06:14:46;;;;;;;1.77;1.67;;;16.60;90.30;17.10;101182.00;;;;4940346;28;98365;-64
2022/05/10 06:17:13;;;;;;;4.93;3.08;;;16.80;89.30;17.40;101182.00;;;;4935521;28;87736;-67
2022/05/10 06:19:41;;;;;;;5.68;2.03;;;17.10;88.20;17.60;101172.00;;;;4955992;28;89022;-66
2022/05/10 06:22:09;;;;;;;3.28;1.77;;;17.40;87.00;17.90;101177.00;;;;4934403;28;89200;-66
2022/05/10 06:24:36;;;;;;;3.08;2.25;;;17.60;85.50;18.20;101170.00;;;;4937380;28;87807;-66
2022/05/10 06:27:05;;;;;;;7.05;2.53;;;17.90;84.20;18.40;101170.00;;;;4934900;28;103789;-66
2022/05/10 06:29:31;;;;;;;3.22;1.42;;;18.20;81.80;18.70;101181.00;;;;4940729;28;87688;-66
2022/05/10 06:31:57;;;;;;;1.50;1.40;;;18.40;79.10;18.90;101171.00;;;;4936290;28;88368;-66
2022/05/10 06:34:23;;;;;;;8.98;1.63;;;18.60;76.60;19.00;101175.00;;;;4935883;28;117409;-66
2022/05/10 06:36:48;;;;;;;1.95;1.75;;;18.80;75.90;19.30;101163.00;;;;4942879;28;110122;-67
2022/05/10 06:39:14;;;;;;;1.60;1.50;;;19.00;74.40;19.50;101167.00;;;;4953846;28;107864;-66
2022/05/10 06:41:40;;;;;;;1.65;1.38;;;19.20;72.30;19.70;101166.00;;;;4952615;28;88516;-66
2022/05/10 06:44:06;;;;;;;5.50;1.88;;;19.40;70.40;19.80;101165.00;;;;4942576;28;116789;-66
2022/05/10 06:46:34;;;;;;;2.63;1.88;;;19.60;68.00;20.00;101157.00;;;;4945001;28;102884;-66
2022/05/10 06:49:02;;;;;;;2.45;1.58;;;19.70;66.80;20.20;101165.00;;;;4954630;28;87630;-66
2022/05/10 06:51:28;;;;;;;3.22;1.90;;;19.90;66.00;20.40;101164.00;;;;4955132;28;88697;-66
2022/05/10 06:53:54;;;;;;;1.73;1.35;;;20.20;65.40;20.70;101160.00;;;;4950370;28;88813;-66
2022/05/10 06:56:21;;;;;;;2.15;1.75;;;20.40;64.00;20.90;101156.00;;;;4958464;28;88049;-66
2022/05/10 06:58:48;;;;;;;1.88;1.67;;;20.60;62.50;21.10;101156.00;;;;4935757;28;88117;-66
2022/05/10 07:01:14;;;;;;;3.47;1.77;;;20.80;61.60;21.40;101159.00;;;;4947128;28;91210;-67
2022/05/10 07:03:47;;;;;;;2.15;1.60;;;21.10;61.00;21.70;101164.00;;;;4952794;28;87877;-66
2022/05/10 07:06:19;;;;;;;1.38;1.00;;;21.40;59.90;21.90;101164.00;;;;4951285;28;88183;-66
2022/05/10 07:08:45;;;;;;;1.52;1.30;;;21.70;59.30;22.20;101152.00;;;;4950614;28;88893;-66
2022/05/10 07:11:12;;;;;;;5.28;1.90;;;22.00;58.70;22.50;101150.00;;;;4934352;28;118573;-66
2022/05/10 07:13:38;;;;;;;3.92;1.33;;;22.20;58.00;22.70;101149.00;;;;4937413;28;88156;-66
2022/05/10 07:16:04;;;;;;;4.72;1.75;;;22.50;57.10;22.90;101147.00;;;;4937199;28;111102;-66
2022/05/10 07:18:31;;;;;;;2.58;1.65;;;22.70;56.00;23.00;101144.00;;;;4953819;28;87889;-66
2022/05/10 07:20:56;;;;;;;1.40;1.30;;;22.80;54.50;23.10;101150.00;;;;4957887;28;88456;-66
2022/05/10 07:23:27;;;;;;;1.98;1.40;;;22.90;53.30;23.20;101154.00;;;;4956885;28;100240;-66
2022/05/10 07:25:53;;;;;;;3.58;1.20;;;23.00;53.30;23.30;101156.00;;;;4957294;28;87057;-68
2022/05/10 07:28:19;;;;;;;3.53;1.60;;;23.10;52.80;23.50;101154.00;;;;4955885;28;91058;-69
2022/05/10 07:30:45;;;;;;;1.95;1.23;;;23.20;52.80;23.70;101148.00;;;;4956672;28;96457;-68
2022/05/10 07:33:11;;;;;;;1.75;1.40;;;23.50;52.60;23.90;101151.00;;;;4957116;28;88932;-69
2022/05/10 07:38:21;;;;;;;2.10;1.30;;;23.90;51.50;24.30;101151.00;;;;4938214;28;87640;-69
2022/05/10 07:40:49;;;;;;;2.42;1.35;;;24.10;51.10;24.60;101157.00;;;;4936551;28;115848;-69
2022/05/10 07:43:18;;;;;;;1.23;1.13;;;24.30;50.70;24.80;101150.00;;;;4937409;28;88857;-69
2022/05/10 07:45:48;;;;;;;1.50;1.30;;;24.60;49.90;25.00;101154.00;;;;4950038;28;89974;-69
2022/05/10 07:48:14;;;;;;;2.10;1.50;;;24.70;49.30;25.10;101149.00;;;;4957426;28;87630;-69
2022/05/10 07:50:40;;;;;;;1.30;1.20;;;24.90;48.70;25.10;101147.00;;;;4955571;28;117741;-70
2022/05/10 07:53:10;;;;;;;2.08;1.30;;;24.90;48.10;25.20;101144.00;;;;4956931;28;87760;-71
2022/05/10 07:55:37;;;;;;;1.50;1.08;;;25.00;47.60;25.20;101147.00;;;;4957283;28;87886;-72
2022/05/10 07:58:05;;;;;;;1.00;0.98;;;25.10;47.30;25.30;101145.00;;;;4936030;28;108347;-71
2022/05/10 08:00:37;;;;;;;1.15;1.00;;;25.10;47.30;25.40;101145.00;;;;4938112;28;89241;-71
2022/05/10 08:03:19;;;;;;;1.65;1.42;;;25.20;47.00;25.50;101140.00;;;;4954842;28;88889;-72
2022/05/10 08:05:46;;;;;;;3.75;1.20;;;25.30;46.60;25.60;101134.00;;;;4957228;28;87919;-72
2022/05/10 08:08:13;;;;;;;1.95;1.67;;;25.40;46.90;25.70;101138.00;;;;4957193;28;87910;-71
2022/05/10 08:10:41;;;;;;;1.67;1.40;;;25.50;46.30;25.80;101138.00;;;;4955083;28;88951;-72
2022/05/10 08:13:20;;;;;;;2.72;1.50;;;25.60;46.20;26.10;101128.00;;;;4953754;28;87721;-72
2022/05/10 08:15:46;;;;;;;1.70;1.25;;;25.80;46.20;26.30;101138.00;;;;4938529;28;91803;-72
2022/05/10 08:18:13;;;;;;;1.98;1.75;;;26.10;45.90;26.40;101141.00;;;;4955433;28;87775;-72
2022/05/10 08:20:50;;;;;;;2.22;1.40;;;26.20;45.10;26.50;101139.00;;;;4955131;28;88014;-71
2022/05/10 08:23:23;;;;;;;3.47;1.75;;;26.30;45.00;26.70;101134.00;;;;4954095;28;88776;-72
2022/05/10 08:25:51;;;;;;;1.30;1.20;;;26.40;44.90;26.90;101130.00;;;;4954094;28;88110;-72
2022/05/10 08:28:17;;;;;;;2.30;1.50;;;26.60;44.70;27.10;101136.00;;;;4956329;28;87880;-72
2022/05/10 08:30:49;;;;;;;1.90;1.60;;;26.80;44.50;27.30;101136.00;;;;4954928;28;117865;-72
2022/05/10 08:33:27;;;;;;;2.28;1.42;;;27.00;43.90;27.40;101127.00;;;;4936100;28;87963;-72
2022/05/10 08:35:55;;;;;;;1.30;1.20;;;27.20;43.20;27.40;101130.00;;;;4937337;28;87736;-72
2022/05/10 08:38:22;;;;;;;3.15;0.90;;;27.20;43.20;27.60;101128.00;;;;4937172;28;87950;-72
2022/05/10 08:41:08;;;;;;;3.08;1.40;;;27.30;43.60;27.80;101135.00;;;;4935947;28;109394;-73
2022/05/10 08:43:41;;;;;;;1.45;1.33;;;27.50;43.60;28.20;101121.00;;;;4966236;28;87702;-72
2022/05/10 08:46:11;;;;;;;2.38;0.88;;;27.80;43.40;28.40;101118.00;;;;4936883;28;87832;-72
2022/05/10 08:48:37;;;;;;;3.42;1.58;;;28.00;42.60;28.50;101124.00;;;;4968195;28;88641;-72
2022/05/10 08:51:04;;;;;;;1.17;1.00;;;28.20;41.60;28.50;101122.00;;;;4956262;28;92144;-72
2022/05/10 08:53:31;;;;;;;1.30;1.20;;;28.20;41.30;28.60;101121.00;;;;4951839;28;96094;-72
2022/05/10 08:56:11;;;;;;;5.88;1.33;;;28.30;41.40;28.90;101111.00;;;;4950194;28;87869;-72
2022/05/10 08:59:17;;;;;;;1.67;1.33;;;28.50;41.50;29.20;101114.00;;;;4967081;28;99459;-70
2022/05/10 09:02:08;;;;;;;1.17;1.10;;;28.80;41.30;29.30;101117.00;;;;4966385;28;108767;-72
2022/05/10 09:05:18;;;;;;;2.53;1.20;;;29.00;40.80;29.40;101121.00;;;;4966547;28;107590;-70
2022/05/10 09:08:12;;;;;;;2.33;1.40;;;29.10;40.70;29.50;101109.00;;;;4934639;28;87245;-69
2022/05/10 09:10:44;;;;;;;2.20;1.63;;;29.20;40.40;29.60;101115.00;;;;4970013;28;99569;-71
2022/05/10 09:13:17;;;;;;;1.30;1.15;;;29.30;40.20;29.60;101116.00;;;;4948564;28;99954;-72
2022/05/10 09:15:57;;;;;;;1.45;1.23;;;29.30;39.70;29.70;101109.00;;;;4962215;28;89072;-70
2022/05/10 09:18:27;;;;;;;1.35;1.25;;;29.30;39.90;29.80;101116.00;;;;4939197;28;87786;-71
2022/05/10 09:21:24;;;;;;;1.67;1.48;;;29.40;40.00;30.00;101105.00;;;;4936548;28;87998;-70
2022/05/10 09:24:14;;;;;;;5.00;1.50;;;29.50;39.90;30.20;101107.00;;;;4937698;28;88082;-70
2022/05/10 09:26:56;;;;;;;3.17;1.42;;;29.80;39.80;30.40;101103.00;;;;4936178;28;87904;-72
2022/05/10 09:29:33;;;;;;;1.42;1.10;;;29.90;39.50;30.50;101103.00;;;;4937528;28;87772;-72
2022/05/10 09:35:20;;;;;;;1.17;1.05;;;30.30;38.60;30.70;101103.00;;;;4933819;28;86977;-71
2022/05/10 09:37:58;;;;;;;1.52;0.77;;;30.30;37.70;30.50;101099.00;;;;4935323;28;96498;-69
2022/05/10 09:40:51;;;;;;;1.73;1.13;;;30.20;36.90;30.40;101094.00;;;;4937539;28;88511;-69
2022/05/10 09:43:22;;;;;;;1.67;1.58;;;30.10;37.40;30.60;101086.00;;;;4933379;28;88650;-69
2022/05/10 09:46:18;;;;;;;2.05;1.40;;;30.10;37.70;30.80;101084.00;;;;4953355;28;88009;-69
2022/05/10 09:48:46;;;;;;;1.20;0.93;;;30.30;37.60;30.90;101079.00;;;;4953758;28;101326;-69
2022/05/10 09:51:39;;;;;;;1.65;1.00;;;30.40;36.80;31.20;101077.00;;;;4951510;28;87890;-69
2022/05/10 09:54:25;;;;;;;1.20;0.90;;;30.60;36.90;31.40;101077.00;;;;4951300;28;87549;-71
2022/05/10 09:57:00;;;;;;;1.77;1.00;;;30.90;35.50;31.60;101084.00;;;;4965904;28;88507;-69
2022/05/10 09:59:48;;;;;;;0.70;0.70;;;31.10;35.20;31.70;101075.00;;;;4949258;28;87805;-70
2022/05/10 10:02:36;;;;;;;1.05;0.80;;;31.10;35.00;31.80;101079.00;;;;4945580;28;110651;-69
2022/05/10 10:05:29;;;;;;;1.10;1.00;;;31.30;34.80;31.90;101076.00;;;;4947571;28;88069;-69
2022/05/10 10:07:57;;;;;;;1.17;0.82;;;31.30;34.70;31.90;101067.00;;;;4951486;28;101289;-69
2022/05/10 10:10:37;;;;;;;1.13;0.93;;;31.40;34.50;31.80;101066.00;;;;4952942;28;98379;-70
2022/05/10 10:13:28;;;;;;;1.30;1.05;;;31.30;34.40;31.70;101065.00;;;;4933045;28;87598;-69
2022/05/10 10:15:54;;;;;;;1.58;1.02;;;31.30;34.40;31.60;101063.00;;;;4951970;28;87866;-72
2022/05/10 10:18:45;;;;;;;1.67;0.60;;;31.10;34.30;31.30;101063.00;;;;4952919;28;88183;-70
2022/05/10 10:21:38;;;;;;;0.90;0.88;;;31.00;34.30;31.20;101064.00;;;;4934551;28;87992;-70
2022/05/10 10:24:04;;;;;;;0.68;0.55;;;30.80;34.30;31.30;101055.00;;;;4938306;28;102361;-69
2022/05/10 10:26:45;;;;;;;1.05;0.80;;;30.80;34.50;31.40;101052.00;;;;4954539;28;93794;-69
2022/05/10 10:29:28;;;;;;;1.35;0.85;;;30.90;33.80;31.60;101045.00;;;;4952576;28;111157;-69
2022/05/10 10:32:04;;;;;;;0.93;0.70;;;31.00;34.10;31.90;101044.00;;;;4934668;28;98207;-71
2022/05/10 10:34:57;;;;;;;1.90;0.85;;;31.20;33.60;32.00;101033.00;;;;4935577;28;89155;-69
2022/05/10 10:37:49;;;;;;;1.20;0.63;;;31.40;33.20;32.30;101033.00;;;;4949591;28;88969;-70
2022/05/10 10:40:34;;;;;;;1.48;0.90;;;31.60;33.20;32.60;101031.00;;;;4962914;28;110699;-70
2022/05/10 10:43:13;;;;;;;0.98;0.57;;;31.90;32.90;32.90;101026.00;;;;4969224;28;90569;-70
2022/05/10 10:45:54;;;;;;;1.10;0.85;;;32.10;32.30;33.20;101032.00;;;;4954124;28;87876;-69
2022/05/10 10:48:52;;;;;;;0.90;0.80;;;32.40;32.10;33.40;101036.00;;;;4954406;28;98371;-72
2022/05/10 10:51:18;;;;;;;0.85;0.63;;;32.60;31.90;33.50;101034.00;;;;4924218;28;100447;-69
2022/05/10 10:53:45;;;;;;;1.02;0.70;;;32.80;31.50;33.50;101023.00;;;;4937617;28;118005;-69
2022/05/10 10:56:43;;;;;;;3.25;1.10;;;32.90;31.90;33.30;101018.00;;;;4960097;28;109707;-69
2022/05/10 10:59:30;;;;;;;1.00;0.73;;;32.70;30.80;32.90;101012.00;;;;4954609;28;87616;-69
2022/05/10 11:02:47;;;;;;;0.70;0.70;;;32.40;31.00;32.30;101020.00;;;;4971822;28;89447;-69
2022/05/10 11:05:34;;;;;;;1.52;1.00;;;32.00;31.30;32.40;101009.00;;;;4954460;28;89016;-70
2022/05/10 11:08:21;;;;;;;1.13;0.80;;;31.80;31.60;32.60;101009.00;;;;4957927;28;87883;-72
2022/05/10 11:10:57;;;;;;;0.70;0.70;;;32.00;31.70;32.70;101004.00;;;;4946250;28;87725;-69
2022/05/10 11:14:07;;;;;;;1.10;1.00;;;32.10;31.20;33.00;101011.00;;;;4936215;28;88103;-72
2022/05/10 11:17:09;;;;;;;1.95;0.60;;;32.30;31.20;33.20;101001.00;;;;4936121;28;87892;-71
2022/05/10 11:20:25;;;;;;;2.70;0.68;;;32.50;30.30;33.60;100995.00;;;;4938452;28;87706;-70
2022/05/10 11:22:57;;;;;;;1.52;0.73;;;32.70;30.50;33.60;100996.00;;;;4961719;28;87759;-70
2022/05/10 11:26:05;;;;;;;0.82;0.75;;;32.90;29.40;33.20;100994.00;;;;4969558;28;94840;-68
2022/05/10 11:29:10;;;;;;;0.52;0.52;;;32.80;29.70;33.00;100993.00;;;;4936096;28;90874;-69
2022/05/10 11:32:22;;;;;;;3.45;0.88;;;32.50;29.30;32.50;100985.00;;;;4936628;28;88039;-70
2022/05/10 11:35:27;;;;;;;1.02;0.88;;;32.20;29.00;31.90;100991.00;;;;4970737;28;88560;-70
2022/05/10 11:38:18;;;;;;;2.20;1.10;;;31.80;29.50;31.50;100985.00;;;;4925906;28;89349;-70
2022/05/10 11:40:46;;;;;;;0.60;0.50;;;31.30;29.90;31.60;100984.00;;;;4965823;28;109143;-70